Pagrindinis puslapis
METAR-TAF:

METAR-TAF

Oro uostai :

Kufra, Libija

platuma: 24-13N, ilguma: 023-18E, Aukštis: 417 m

METAR: trūkstamas

Laikas: 07:32 (05:32 UTC)

Prognozė

Ataskaita buvo paskelbta 12 valandos ir 32 minutes, ne 17:00 UTC
Prognozė galioja nuo 29 metu 18 UTC su 30 metu 18 UTC
Vėjas 2 kt nuo kintamojo kryptimis
Tapsmas
nuo 30 metu 00 UTC su 30 metu 02 UTC
Vėjas 10 kt iš Šiaurės

TAF: HLKF 291700Z 2918/3018 VRB02KT 8KM NSC BECMG 3000/3002 36010KT

Orai ataskaitas ir orų prognozės (METAR, TAF).

turimą stotys yra geltonos ir raudonos taškus žemėlapyje.

Perkelti pele per norėdami pamatyti stoties vardą.

Tada spustelėkite, norėdami matyti oro stebėjimo ir prognozės.

Norėdami pakeisti žemėlapį: spustelėkite ant žalios mygtukų su juodo kryžiaus žemyn,; žalią mygtuką su brūkšneliu, jei norite nutolinti; arba žalių rodyklių gretimoms žemėlapius.


METAR-TAF: